createdAt,value
2019-04-04T00:04:49.021Z,3.80
2019-04-04T00:09:50.301Z,3.70
2019-04-04T00:14:51.821Z,3.60
2019-04-04T00:19:53.718Z,3.60
2019-04-04T00:24:55.241Z,3.50
2019-04-04T00:29:56.658Z,3.50
2019-04-04T00:35:01.291Z,3.40
2019-04-04T00:40:06.816Z,3.40
2019-04-04T00:45:10.563Z,3.40
2019-04-04T00:50:12.272Z,3.30
2019-04-04T00:55:15.565Z,3.30
2019-04-04T01:00:17.179Z,3.30
2019-04-04T01:05:19.063Z,3.30
2019-04-04T01:10:20.591Z,3.20
2019-04-04T01:15:22.055Z,3.10
2019-04-04T01:20:23.497Z,3.10
2019-04-04T01:25:26.822Z,3.00
2019-04-04T01:30:31.524Z,3.00
2019-04-04T01:35:34.628Z,2.90
2019-04-04T01:40:36.277Z,2.90
2019-04-04T01:45:57.731Z,2.90
2019-04-04T01:50:59.154Z,2.80
2019-04-04T01:56:02.010Z,2.90
2019-04-04T02:01:04.293Z,2.90
2019-04-04T02:06:05.826Z,2.90
2019-04-04T02:11:09.531Z,3.00
2019-04-04T02:16:12.604Z,3.00
2019-04-04T02:21:15.859Z,3.00
2019-04-04T02:26:19.355Z,3.00
2019-04-04T02:31:41.082Z,3.00
2019-04-04T02:36:43.102Z,3.00
2019-04-04T02:41:47.720Z,3.00
2019-04-04T02:46:48.437Z,3.00
2019-04-04T02:51:50.021Z,3.00
2019-04-04T02:56:51.773Z,3.10
2019-04-04T03:01:53.381Z,3.10
2019-04-04T03:07:13.965Z,3.10
2019-04-04T03:12:15.418Z,3.20
2019-04-04T03:17:20.083Z,3.20
2019-04-04T03:22:26.972Z,3.20
2019-04-04T03:27:27.364Z,3.30
2019-04-04T03:32:30.891Z,3.30
2019-04-04T03:37:32.256Z,3.40
2019-04-04T03:42:35.758Z,3.40
2019-04-04T03:47:43.442Z,3.40
2019-04-04T03:52:44.332Z,3.40
2019-04-04T03:57:48.136Z,3.50
2019-04-04T04:02:50.809Z,3.40
2019-04-04T04:07:52.972Z,3.50
2019-04-04T04:12:55.050Z,3.40
2019-04-04T04:17:56.430Z,3.50
2019-04-04T04:22:59.699Z,3.50
2019-04-04T04:28:03.146Z,3.50
2019-04-04T04:33:04.492Z,3.50
2019-04-04T04:38:05.948Z,3.50
2019-04-04T04:43:07.257Z,3.50
2019-04-04T04:48:08.590Z,3.50
2019-04-04T04:53:10.321Z,3.50
2019-04-04T04:58:12.097Z,3.50
2019-04-04T05:03:13.588Z,3.60
2019-04-04T05:08:15.463Z,3.50
2019-04-04T05:13:17.373Z,3.60
2019-04-04T05:18:18.921Z,3.50
2019-04-04T05:23:22.439Z,3.50
2019-04-04T05:28:23.986Z,3.50
2019-04-04T05:33:27.469Z,3.50
2019-04-04T05:38:29.186Z,3.50
2019-04-04T05:43:30.911Z,3.60
2019-04-04T05:48:36.246Z,3.60
2019-04-04T05:53:38.061Z,3.60
2019-04-04T05:58:39.348Z,3.60
2019-04-04T06:03:41.100Z,3.70
2019-04-04T06:08:43.428Z,3.70
2019-04-04T06:13:45.002Z,3.70
2019-04-04T06:18:49.067Z,3.80
2019-04-04T06:23:49.789Z,3.90
2019-04-04T06:28:51.306Z,3.90
2019-04-04T06:33:52.719Z,4.00
2019-04-04T06:38:54.581Z,4.10
2019-04-04T06:43:56.336Z,4.20
2019-04-04T06:48:57.825Z,4.30
2019-04-04T06:53:59.667Z,4.40
2019-04-04T06:59:01.776Z,4.50
2019-04-04T07:04:03.266Z,4.50
2019-04-04T07:09:06.547Z,4.60
2019-04-04T07:14:08.150Z,4.70
2019-04-04T07:19:09.608Z,4.90
2019-04-04T07:24:11.161Z,5.00
2019-04-04T07:29:12.602Z,5.10
2019-04-04T07:34:14.307Z,5.20
2019-04-04T07:39:15.975Z,5.30
2019-04-04T07:44:17.661Z,5.40
2019-04-04T07:49:21.131Z,5.50
2019-04-04T07:54:24.382Z,5.60
2019-04-04T07:59:25.898Z,5.70
2019-04-04T08:04:27.433Z,5.80
2019-04-04T08:09:28.914Z,5.90
2019-04-04T08:14:30.570Z,6.00
2019-04-04T08:19:32.051Z,6.10
2019-04-04T08:24:33.529Z,6.10
2019-04-04T08:29:34.846Z,6.10
2019-04-04T08:34:37.236Z,6.20
2019-04-04T08:39:38.666Z,6.30
2019-04-04T08:44:40.853Z,6.30
2019-04-04T08:49:42.389Z,6.40
2019-04-04T08:54:45.495Z,6.50
2019-04-04T08:59:46.939Z,6.60
2019-04-04T09:04:51.310Z,6.60
2019-04-04T09:09:52.953Z,6.70
2019-04-04T09:14:54.470Z,6.80
2019-04-04T09:20:14.741Z,6.90
2019-04-04T09:25:16.850Z,7.00
2019-04-04T09:30:18.888Z,7.20
2019-04-04T09:35:20.504Z,7.50
2019-04-04T09:40:21.893Z,7.70
2019-04-04T09:45:26.755Z,8.00
2019-04-04T09:50:28.172Z,8.10
2019-04-04T09:55:29.628Z,8.40
2019-04-04T10:00:33.001Z,8.60
2019-04-04T10:05:34.878Z,8.80
2019-04-04T10:10:36.452Z,8.90
2019-04-04T10:15:38.043Z,9.00
2019-04-04T10:20:39.970Z,9.00
2019-04-04T10:25:41.456Z,9.00
2019-04-04T10:30:42.876Z,9.10
2019-04-04T10:35:44.197Z,9.10
2019-04-04T10:40:45.615Z,9.20
2019-04-04T10:45:47.011Z,9.40
2019-04-04T10:50:48.541Z,9.50
2019-04-04T10:55:51.442Z,9.70
2019-04-04T11:00:54.444Z,9.80
2019-04-04T11:05:55.778Z,9.80
2019-04-04T11:10:58.940Z,9.80
2019-04-04T11:16:00.547Z,9.90
2019-04-04T11:21:02.041Z,10.10
2019-04-04T11:26:03.790Z,10.20
2019-04-04T11:31:05.249Z,10.30
2019-04-04T11:36:06.828Z,10.40
2019-04-04T11:41:08.535Z,10.50
2019-04-04T11:46:10.263Z,10.70
2019-04-04T11:51:12.017Z,10.80
2019-04-04T11:56:13.543Z,11.00
2019-04-04T12:01:16.796Z,11.10
2019-04-04T12:06:18.112Z,11.20
2019-04-04T12:11:22.492Z,11.30
2019-04-04T12:16:24.712Z,11.40
2019-04-04T12:21:26.282Z,11.40
2019-04-04T12:26:27.617Z,11.40
2019-04-04T12:31:30.430Z,11.40
2019-04-04T12:36:31.943Z,11.40
2019-04-04T12:41:33.370Z,11.40
2019-04-04T12:46:34.783Z,11.40
2019-04-04T12:51:36.213Z,11.50
2019-04-04T12:56:37.518Z,11.60
2019-04-04T13:01:39.209Z,11.70
2019-04-04T13:06:40.772Z,11.70
2019-04-04T13:11:42.233Z,11.80
2019-04-04T13:16:45.471Z,11.80
2019-04-04T13:21:46.999Z,11.90
2019-04-04T13:26:48.509Z,11.90
2019-04-04T13:31:52.067Z,11.80
2019-04-04T13:36:53.522Z,11.90
2019-04-04T13:41:54.861Z,11.90
2019-04-04T13:46:57.759Z,11.90
2019-04-04T13:51:59.586Z,11.90
2019-04-04T13:57:01.326Z,11.80
2019-04-04T14:02:03.447Z,11.90
2019-04-04T14:07:05.417Z,12.00
2019-04-04T14:12:25.663Z,12.00
2019-04-04T14:17:27.205Z,12.20
2019-04-04T14:22:28.799Z,12.20
2019-04-04T14:27:30.230Z,12.20
2019-04-04T14:32:31.774Z,12.20
2019-04-04T14:37:33.648Z,12.10
2019-04-04T14:42:35.076Z,12.10
2019-04-04T14:47:36.965Z,12.00
2019-04-04T14:52:39.597Z,11.90
2019-04-04T14:57:41.822Z,11.90
2019-04-04T15:02:43.472Z,11.80
2019-04-04T15:07:45.003Z,11.80
2019-04-04T15:12:46.501Z,11.90
2019-04-04T15:17:48.313Z,11.90
2019-04-04T15:22:50.107Z,12.00
2019-04-04T15:27:51.817Z,12.00
2019-04-04T15:32:53.463Z,12.00
2019-04-04T15:37:55.102Z,11.90
2019-04-04T15:42:56.536Z,11.90
2019-04-04T15:47:57.997Z,11.80
2019-04-04T15:52:59.501Z,11.80
2019-04-04T15:58:01.165Z,11.80
2019-04-04T16:03:02.873Z,11.90
2019-04-04T16:08:04.646Z,11.90
2019-04-04T16:13:06.090Z,11.80
2019-04-04T16:18:07.527Z,11.80
2019-04-04T16:23:09.324Z,11.80
2019-04-04T16:28:10.897Z,11.90
2019-04-04T16:33:12.385Z,11.90
2019-04-04T16:38:13.786Z,12.00
2019-04-04T16:43:15.214Z,11.90
2019-04-04T16:48:16.661Z,11.70
2019-04-04T16:53:18.050Z,11.60
2019-04-04T16:58:19.567Z,11.40
2019-04-04T17:03:40.237Z,11.30
2019-04-04T17:08:42.151Z,11.10
2019-04-04T17:13:43.984Z,11.00
2019-04-04T17:18:45.545Z,10.90
2019-04-04T17:23:47.379Z,10.80
2019-04-04T17:28:49.128Z,10.60
2019-04-04T17:33:51.600Z,10.50
2019-04-04T17:38:55.060Z,10.40
2019-04-04T17:43:56.855Z,10.30
2019-04-04T17:49:17.017Z,10.20
2019-04-04T17:54:18.867Z,10.10
2019-04-04T17:59:20.322Z,10.10
2019-04-04T18:04:21.842Z,10.00
2019-04-04T18:09:31.716Z,9.90
2019-04-04T18:14:27.263Z,9.80
2019-04-04T18:19:30.726Z,9.70
2019-04-04T18:24:32.283Z,9.50
2019-04-04T18:29:34.190Z,9.40
2019-04-04T18:34:35.936Z,9.30
2019-04-04T18:39:38.057Z,9.20
2019-04-04T18:44:39.579Z,9.10
2019-04-04T18:49:41.149Z,9.00
2019-04-04T18:54:42.899Z,8.90
2019-04-04T18:59:44.452Z,8.80
2019-04-04T19:04:46.021Z,8.70
2019-04-04T19:09:47.591Z,8.70
2019-04-04T19:14:50.723Z,8.60
2019-04-04T19:19:52.227Z,8.60
2019-04-04T19:24:53.782Z,8.60
2019-04-04T19:29:55.641Z,8.50
2019-04-04T19:34:56.996Z,8.50
2019-04-04T19:39:58.549Z,8.50
2019-04-04T19:44:59.941Z,8.40
2019-04-04T19:50:01.692Z,8.40
2019-04-04T19:55:05.096Z,8.40
2019-04-04T20:00:11.003Z,8.30
2019-04-04T20:05:15.473Z,8.30
2019-04-04T20:10:17.022Z,8.20
2019-04-04T20:15:19.402Z,8.10
2019-04-04T20:20:20.726Z,8.00
2019-04-04T20:25:22.169Z,8.00
2019-04-04T20:30:36.034Z,7.90
2019-04-04T20:35:37.459Z,7.80
2019-04-04T20:40:38.858Z,7.70
2019-04-04T20:45:40.436Z,7.70
2019-04-04T20:50:41.888Z,7.60
2019-04-04T20:55:43.350Z,7.50
2019-04-04T21:00:44.664Z,7.40
2019-04-04T21:05:45.966Z,7.30
2019-04-04T21:10:47.595Z,7.30
2019-04-04T21:16:13.727Z,7.20
2019-04-04T21:21:15.395Z,7.10
2019-04-04T21:26:16.965Z,7.10
2019-04-04T21:31:20.534Z,7.00
2019-04-04T21:36:22.142Z,6.90
2019-04-04T21:41:23.490Z,6.90
2019-04-04T21:46:24.928Z,6.80
2019-04-04T21:51:26.374Z,6.80
2019-04-04T21:56:27.786Z,6.80
2019-04-04T22:01:29.439Z,6.70
2019-04-04T22:06:30.854Z,6.70
2019-04-04T22:11:32.396Z,6.60
2019-04-04T22:16:34.151Z,6.50
2019-04-04T22:21:35.608Z,6.50
2019-04-04T22:26:37.027Z,6.40
2019-04-04T22:31:38.708Z,6.30
2019-04-04T22:36:40.242Z,6.20
2019-04-04T22:41:41.650Z,6.20
2019-04-04T22:46:43.189Z,6.20
2019-04-04T22:51:44.561Z,6.10
2019-04-04T22:56:45.984Z,6.10
2019-04-04T23:01:47.533Z,6.10
2019-04-04T23:06:49.160Z,6.00
2019-04-04T23:11:51.121Z,6.10
2019-04-04T23:16:52.575Z,6.00
2019-04-04T23:21:54.563Z,6.00
2019-04-04T23:26:55.967Z,6.00
2019-04-04T23:31:57.304Z,5.90
2019-04-04T23:36:58.711Z,5.90
2019-04-04T23:42:00.021Z,5.90
2019-04-04T23:47:01.338Z,5.90
2019-04-04T23:52:02.972Z,5.90
2019-04-04T23:57:04.376Z,5.80
